sensor_id;sensor_type;location;lat;lon;timestamp;P1;durP1;ratioP1;P2;durP2;ratioP2
55134;SDS011;41031;44.750;11.308;2023-02-15T00:02:00;75.40;;;39.47;;
55134;SDS011;41031;44.750;11.308;2023-02-15T00:04:27;77.00;;;40.73;;
55134;SDS011;41031;44.750;11.308;2023-02-15T00:07:13;83.13;;;41.33;;
55134;SDS011;41031;44.750;11.308;2023-02-15T00:09:42;74.47;;;40.37;;
55134;SDS011;41031;44.750;11.308;2023-02-15T00:12:11;75.00;;;41.00;;
55134;SDS011;41031;44.750;11.308;2023-02-15T00:14:38;78.70;;;41.27;;
55134;SDS011;41031;44.750;11.308;2023-02-15T00:17:05;77.40;;;40.27;;
55134;SDS011;41031;44.750;11.308;2023-02-15T00:19:32;78.40;;;39.97;;
55134;SDS011;41031;44.750;11.308;2023-02-15T00:21:59;68.90;;;37.87;;
55134;SDS011;41031;44.750;11.308;2023-02-15T00:24:26;73.13;;;39.43;;
55134;SDS011;41031;44.750;11.308;2023-02-15T00:26:53;78.97;;;39.23;;
55134;SDS011;41031;44.750;11.308;2023-02-15T00:29:20;76.03;;;38.73;;
55134;SDS011;41031;44.750;11.308;2023-02-15T00:31:48;77.23;;;38.10;;
55134;SDS011;41031;44.750;11.308;2023-02-15T00:34:19;83.87;;;40.70;;
55134;SDS011;41031;44.750;11.308;2023-02-15T00:36:47;83.30;;;39.70;;
55134;SDS011;41031;44.750;11.308;2023-02-15T00:39:15;83.63;;;41.17;;
55134;SDS011;41031;44.750;11.308;2023-02-15T00:41:44;82.67;;;39.50;;
55134;SDS011;41031;44.750;11.308;2023-02-15T00:44:12;73.90;;;38.63;;
55134;SDS011;41031;44.750;11.308;2023-02-15T00:46:40;71.77;;;37.83;;
55134;SDS011;41031;44.750;11.308;2023-02-15T00:49:08;79.73;;;40.23;;
55134;SDS011;41031;44.750;11.308;2023-02-15T00:51:36;79.17;;;38.37;;
55134;SDS011;41031;44.750;11.308;2023-02-15T00:54:04;76.40;;;38.77;;
55134;SDS011;41031;44.750;11.308;2023-02-15T00:56:31;78.30;;;38.40;;
55134;SDS011;41031;44.750;11.308;2023-02-15T00:58:58;70.47;;;38.20;;
55134;SDS011;41031;44.750;11.308;2023-02-15T01:01:25;71.23;;;36.03;;
55134;SDS011;41031;44.750;11.308;2023-02-15T01:03:52;70.17;;;37.20;;
55134;SDS011;41031;44.750;11.308;2023-02-15T01:06:20;83.07;;;37.70;;
55134;SDS011;41031;44.750;11.308;2023-02-15T01:08:47;73.47;;;36.43;;
55134;SDS011;41031;44.750;11.308;2023-02-15T01:11:15;78.77;;;37.60;;
55134;SDS011;41031;44.750;11.308;2023-02-15T01:13:52;73.80;;;37.60;;
55134;SDS011;41031;44.750;11.308;2023-02-15T01:16:21;75.07;;;38.30;;
55134;SDS011;41031;44.750;11.308;2023-02-15T01:18:49;73.33;;;37.50;;
55134;SDS011;41031;44.750;11.308;2023-02-15T01:21:17;68.73;;;35.43;;
55134;SDS011;41031;44.750;11.308;2023-02-15T01:23:46;73.33;;;37.80;;
55134;SDS011;41031;44.750;11.308;2023-02-15T01:26:14;65.07;;;35.70;;
55134;SDS011;41031;44.750;11.308;2023-02-15T01:28:42;64.13;;;33.87;;
55134;SDS011;41031;44.750;11.308;2023-02-15T01:31:11;60.87;;;33.00;;
55134;SDS011;41031;44.750;11.308;2023-02-15T01:33:41;70.40;;;35.70;;
55134;SDS011;41031;44.750;11.308;2023-02-15T01:36:08;68.23;;;35.63;;
55134;SDS011;41031;44.750;11.308;2023-02-15T01:38:37;66.20;;;33.83;;
55134;SDS011;41031;44.750;11.308;2023-02-15T01:41:06;78.87;;;36.07;;
55134;SDS011;41031;44.750;11.308;2023-02-15T01:43:54;74.00;;;37.87;;
55134;SDS011;41031;44.750;11.308;2023-02-15T01:46:43;74.77;;;37.73;;
55134;SDS011;41031;44.750;11.308;2023-02-15T01:49:17;85.50;;;39.80;;
55134;SDS011;41031;44.750;11.308;2023-02-15T01:51:50;76.53;;;37.37;;
55134;SDS011;41031;44.750;11.308;2023-02-15T01:54:30;72.57;;;36.30;;
55134;SDS011;41031;44.750;11.308;2023-02-15T01:57:04;69.90;;;35.47;;
55134;SDS011;41031;44.750;11.308;2023-02-15T01:59:35;74.87;;;36.17;;
55134;SDS011;41031;44.750;11.308;2023-02-15T02:02:05;71.13;;;35.90;;
55134;SDS011;41031;44.750;11.308;2023-02-15T02:04:38;71.63;;;34.83;;
55134;SDS011;41031;44.750;11.308;2023-02-15T02:07:10;66.33;;;34.93;;
55134;SDS011;41031;44.750;11.308;2023-02-15T02:09:40;66.43;;;33.30;;
55134;SDS011;41031;44.750;11.308;2023-02-15T02:12:08;55.07;;;29.67;;
55134;SDS011;41031;44.750;11.308;2023-02-15T02:14:38;57.70;;;32.27;;
55134;SDS011;41031;44.750;11.308;2023-02-15T02:33:21;63.63;;;32.97;;
55134;SDS011;41031;44.750;11.308;2023-02-15T02:39:06;71.57;;;34.87;;
55134;SDS011;41031;44.750;11.308;2023-02-15T02:47:05;56.20;;;30.53;;
55134;SDS011;41031;44.750;11.308;2023-02-15T02:49:59;57.57;;;29.40;;
55134;SDS011;41031;44.750;11.308;2023-02-15T02:55:10;57.90;;;30.50;;
55134;SDS011;41031;44.750;11.308;2023-02-15T02:57:55;59.33;;;31.50;;
55134;SDS011;41031;44.750;11.308;2023-02-15T03:00:40;63.70;;;30.90;;
55134;SDS011;41031;44.750;11.308;2023-02-15T03:03:20;60.60;;;31.57;;
55134;SDS011;41031;44.750;11.308;2023-02-15T03:06:09;62.67;;;31.33;;
55134;SDS011;41031;44.750;11.308;2023-02-15T03:08:47;54.37;;;29.53;;
55134;SDS011;41031;44.750;11.308;2023-02-15T03:11:17;52.93;;;29.23;;
55134;SDS011;41031;44.750;11.308;2023-02-15T03:13:44;59.50;;;30.57;;
55134;SDS011;41031;44.750;11.308;2023-02-15T03:16:14;59.03;;;29.93;;
55134;SDS011;41031;44.750;11.308;2023-02-15T03:18:55;63.53;;;31.63;;
55134;SDS011;41031;44.750;11.308;2023-02-15T03:21:45;61.07;;;32.03;;
55134;SDS011;41031;44.750;11.308;2023-02-15T03:24:25;53.90;;;28.97;;
55134;SDS011;41031;44.750;11.308;2023-02-15T03:26:56;57.30;;;28.80;;
55134;SDS011;41031;44.750;11.308;2023-02-15T03:29:25;58.67;;;29.33;;
55134;SDS011;41031;44.750;11.308;2023-02-15T03:31:58;59.40;;;30.20;;
55134;SDS011;41031;44.750;11.308;2023-02-15T03:34:28;63.27;;;30.97;;
55134;SDS011;41031;44.750;11.308;2023-02-15T03:36:58;66.70;;;29.77;;
55134;SDS011;41031;44.750;11.308;2023-02-15T03:42:10;61.80;;;32.03;;
55134;SDS011;41031;44.750;11.308;2023-02-15T03:44:49;57.73;;;30.07;;
55134;SDS011;41031;44.750;11.308;2023-02-15T03:47:19;55.03;;;30.07;;
55134;SDS011;41031;44.750;11.308;2023-02-15T03:49:52;56.13;;;29.30;;
55134;SDS011;41031;44.750;11.308;2023-02-15T03:52:23;66.00;;;31.07;;
55134;SDS011;41031;44.750;11.308;2023-02-15T03:54:54;65.13;;;32.20;;
55134;SDS011;41031;44.750;11.308;2023-02-15T03:57:22;58.23;;;30.90;;
55134;SDS011;41031;44.750;11.308;2023-02-15T04:03:08;58.07;;;28.83;;
55134;SDS011;41031;44.750;11.308;2023-02-15T04:05:55;55.27;;;26.80;;
55134;SDS011;41031;44.750;11.308;2023-02-15T04:08:22;56.37;;;30.97;;
55134;SDS011;41031;44.750;11.308;2023-02-15T04:11:09;61.23;;;28.90;;
55134;SDS011;41031;44.750;11.308;2023-02-15T04:13:36;60.93;;;30.13;;
55134;SDS011;41031;44.750;11.308;2023-02-15T04:16:03;54.07;;;28.83;;
55134;SDS011;41031;44.750;11.308;2023-02-15T04:18:37;55.43;;;28.13;;
55134;SDS011;41031;44.750;11.308;2023-02-15T04:21:24;50.80;;;28.37;;
55134;SDS011;41031;44.750;11.308;2023-02-15T04:24:11;54.40;;;28.97;;
55134;SDS011;41031;44.750;11.308;2023-02-15T04:26:58;59.33;;;29.97;;
55134;SDS011;41031;44.750;11.308;2023-02-15T04:29:26;53.37;;;29.47;;
55134;SDS011;41031;44.750;11.308;2023-02-15T04:31:54;54.90;;;27.97;;
55134;SDS011;41031;44.750;11.308;2023-02-15T04:34:22;59.03;;;30.93;;
55134;SDS011;41031;44.750;11.308;2023-02-15T04:36:49;56.03;;;28.17;;
55134;SDS011;41031;44.750;11.308;2023-02-15T04:39:17;58.17;;;29.37;;
55134;SDS011;41031;44.750;11.308;2023-02-15T04:41:44;53.77;;;28.67;;
55134;SDS011;41031;44.750;11.308;2023-02-15T04:44:12;58.10;;;29.60;;
55134;SDS011;41031;44.750;11.308;2023-02-15T04:46:39;56.10;;;28.10;;
55134;SDS011;41031;44.750;11.308;2023-02-15T04:49:07;55.97;;;29.73;;
55134;SDS011;41031;44.750;11.308;2023-02-15T04:51:34;60.30;;;28.43;;
55134;SDS011;41031;44.750;11.308;2023-02-15T04:54:01;51.53;;;28.77;;
55134;SDS011;41031;44.750;11.308;2023-02-15T04:56:28;63.83;;;30.60;;
55134;SDS011;41031;44.750;11.308;2023-02-15T04:58:56;61.00;;;29.87;;
55134;SDS011;41031;44.750;11.308;2023-02-15T05:01:23;59.00;;;30.70;;
55134;SDS011;41031;44.750;11.308;2023-02-15T05:03:50;54.10;;;29.10;;
55134;SDS011;41031;44.750;11.308;2023-02-15T05:06:17;58.20;;;29.87;;
55134;SDS011;41031;44.750;11.308;2023-02-15T05:08:44;51.63;;;28.73;;
55134;SDS011;41031;44.750;11.308;2023-02-15T05:11:11;56.73;;;30.13;;
55134;SDS011;41031;44.750;11.308;2023-02-15T05:13:38;51.97;;;27.77;;
55134;SDS011;41031;44.750;11.308;2023-02-15T05:16:05;60.37;;;28.67;;
55134;SDS011;41031;44.750;11.308;2023-02-15T05:18:32;57.77;;;29.30;;
55134;SDS011;41031;44.750;11.308;2023-02-15T05:20:59;57.60;;;30.50;;
55134;SDS011;41031;44.750;11.308;2023-02-15T05:23:26;58.57;;;29.47;;
55134;SDS011;41031;44.750;11.308;2023-02-15T05:25:53;60.97;;;29.30;;
55134;SDS011;41031;44.750;11.308;2023-02-15T05:28:39;53.33;;;29.87;;
55134;SDS011;41031;44.750;11.308;2023-02-15T05:33:40;56.30;;;29.70;;
55134;SDS011;41031;44.750;11.308;2023-02-15T05:36:08;52.20;;;27.97;;
55134;SDS011;41031;44.750;11.308;2023-02-15T05:38:35;57.03;;;28.50;;
55134;SDS011;41031;44.750;11.308;2023-02-15T05:41:05;52.63;;;26.70;;
55134;SDS011;41031;44.750;11.308;2023-02-15T05:43:33;54.20;;;26.80;;
55134;SDS011;41031;44.750;11.308;2023-02-15T05:46:01;54.53;;;27.13;;
55134;SDS011;41031;44.750;11.308;2023-02-15T05:48:30;54.80;;;26.60;;
55134;SDS011;41031;44.750;11.308;2023-02-15T05:50:58;52.27;;;26.77;;
55134;SDS011;41031;44.750;11.308;2023-02-15T05:53:29;53.40;;;26.40;;
55134;SDS011;41031;44.750;11.308;2023-02-15T05:55:58;54.03;;;27.03;;
55134;SDS011;41031;44.750;11.308;2023-02-15T05:58:31;53.07;;;25.43;;
55134;SDS011;41031;44.750;11.308;2023-02-15T06:01:06;60.33;;;28.30;;
55134;SDS011;41031;44.750;11.308;2023-02-15T06:03:34;52.50;;;26.03;;
55134;SDS011;41031;44.750;11.308;2023-02-15T06:06:02;56.50;;;27.57;;
55134;SDS011;41031;44.750;11.308;2023-02-15T06:08:31;53.13;;;28.40;;
55134;SDS011;41031;44.750;11.308;2023-02-15T06:10:59;50.10;;;26.60;;
55134;SDS011;41031;44.750;11.308;2023-02-15T06:13:27;58.47;;;26.97;;
55134;SDS011;41031;44.750;11.308;2023-02-15T06:15:54;48.70;;;26.20;;
55134;SDS011;41031;44.750;11.308;2023-02-15T06:18:22;53.17;;;26.73;;
55134;SDS011;41031;44.750;11.308;2023-02-15T06:20:49;53.30;;;26.87;;
55134;SDS011;41031;44.750;11.308;2023-02-15T06:23:16;62.30;;;27.40;;
55134;SDS011;41031;44.750;11.308;2023-02-15T06:25:44;51.83;;;24.50;;
55134;SDS011;41031;44.750;11.308;2023-02-15T06:28:12;49.10;;;26.43;;
55134;SDS011;41031;44.750;11.308;2023-02-15T06:30:39;53.30;;;26.90;;
55134;SDS011;41031;44.750;11.308;2023-02-15T06:33:06;55.77;;;27.90;;
55134;SDS011;41031;44.750;11.308;2023-02-15T06:35:33;52.17;;;26.30;;
55134;SDS011;41031;44.750;11.308;2023-02-15T06:38:00;53.40;;;27.57;;
55134;SDS011;41031;44.750;11.308;2023-02-15T06:40:27;54.23;;;26.77;;
55134;SDS011;41031;44.750;11.308;2023-02-15T06:42:54;48.43;;;26.97;;
55134;SDS011;41031;44.750;11.308;2023-02-15T06:45:21;58.57;;;29.23;;
55134;SDS011;41031;44.750;11.308;2023-02-15T06:47:48;59.07;;;27.90;;
55134;SDS011;41031;44.750;11.308;2023-02-15T06:50:16;57.90;;;28.63;;
55134;SDS011;41031;44.750;11.308;2023-02-15T06:52:43;56.27;;;28.53;;
55134;SDS011;41031;44.750;11.308;2023-02-15T06:55:09;52.73;;;27.50;;
55134;SDS011;41031;44.750;11.308;2023-02-15T06:57:37;60.03;;;29.97;;
55134;SDS011;41031;44.750;11.308;2023-02-15T07:00:04;52.37;;;26.63;;
55134;SDS011;41031;44.750;11.308;2023-02-15T07:02:32;53.13;;;26.60;;
55134;SDS011;41031;44.750;11.308;2023-02-15T07:04:59;53.80;;;26.97;;
55134;SDS011;41031;44.750;11.308;2023-02-15T07:07:26;52.87;;;26.30;;
55134;SDS011;41031;44.750;11.308;2023-02-15T07:09:53;58.90;;;28.70;;
55134;SDS011;41031;44.750;11.308;2023-02-15T07:12:20;53.57;;;28.63;;
55134;SDS011;41031;44.750;11.308;2023-02-15T07:15:07;58.73;;;26.17;;
55134;SDS011;41031;44.750;11.308;2023-02-15T07:17:36;50.13;;;27.03;;
55134;SDS011;41031;44.750;11.308;2023-02-15T07:20:04;53.50;;;27.50;;
55134;SDS011;41031;44.750;11.308;2023-02-15T07:22:34;57.03;;;27.47;;
55134;SDS011;41031;44.750;11.308;2023-02-15T07:25:03;55.17;;;27.80;;
55134;SDS011;41031;44.750;11.308;2023-02-15T07:27:32;55.43;;;28.13;;
55134;SDS011;41031;44.750;11.308;2023-02-15T07:29:59;50.13;;;25.23;;
55134;SDS011;41031;44.750;11.308;2023-02-15T07:32:27;49.73;;;27.03;;
55134;SDS011;41031;44.750;11.308;2023-02-15T07:34:58;48.97;;;26.97;;
55134;SDS011;41031;44.750;11.308;2023-02-15T07:37:26;61.07;;;27.33;;
55134;SDS011;41031;44.750;11.308;2023-02-15T07:39:53;47.73;;;25.97;;
55134;SDS011;41031;44.750;11.308;2023-02-15T07:42:20;49.03;;;26.30;;
55134;SDS011;41031;44.750;11.308;2023-02-15T07:44:51;48.80;;;26.50;;
55134;SDS011;41031;44.750;11.308;2023-02-15T07:47:19;49.10;;;26.23;;
55134;SDS011;41031;44.750;11.308;2023-02-15T07:49:46;46.87;;;24.63;;
55134;SDS011;41031;44.750;11.308;2023-02-15T07:52:15;58.43;;;25.40;;
55134;SDS011;41031;44.750;11.308;2023-02-15T07:54:42;49.43;;;25.40;;
55134;SDS011;41031;44.750;11.308;2023-02-15T07:57:09;51.63;;;25.23;;
55134;SDS011;41031;44.750;11.308;2023-02-15T07:59:36;53.63;;;27.17;;
55134;SDS011;41031;44.750;11.308;2023-02-15T08:02:05;48.07;;;25.23;;
55134;SDS011;41031;44.750;11.308;2023-02-15T08:04:36;46.77;;;23.77;;
55134;SDS011;41031;44.750;11.308;2023-02-15T08:07:03;45.33;;;25.27;;
55134;SDS011;41031;44.750;11.308;2023-02-15T08:09:30;43.53;;;24.13;;
55134;SDS011;41031;44.750;11.308;2023-02-15T08:11:57;47.30;;;24.27;;
55134;SDS011;41031;44.750;11.308;2023-02-15T08:14:24;41.10;;;22.43;;
55134;SDS011;41031;44.750;11.308;2023-02-15T08:16:54;44.10;;;23.73;;
55134;SDS011;41031;44.750;11.308;2023-02-15T08:19:26;40.30;;;23.23;;
55134;SDS011;41031;44.750;11.308;2023-02-15T08:21:58;38.13;;;21.70;;
55134;SDS011;41031;44.750;11.308;2023-02-15T08:24:28;42.70;;;23.27;;
55134;SDS011;41031;44.750;11.308;2023-02-15T08:26:58;45.93;;;24.13;;
55134;SDS011;41031;44.750;11.308;2023-02-15T08:29:26;39.30;;;21.93;;
55134;SDS011;41031;44.750;11.308;2023-02-15T08:31:58;48.30;;;22.73;;
55134;SDS011;41031;44.750;11.308;2023-02-15T08:34:31;42.33;;;23.27;;
55134;SDS011;41031;44.750;11.308;2023-02-15T08:37:01;43.00;;;23.57;;
55134;SDS011;41031;44.750;11.308;2023-02-15T08:39:28;41.77;;;23.73;;
55134;SDS011;41031;44.750;11.308;2023-02-15T08:41:55;45.63;;;21.77;;
55134;SDS011;41031;44.750;11.308;2023-02-15T08:44:22;38.93;;;22.53;;
55134;SDS011;41031;44.750;11.308;2023-02-15T08:46:50;39.27;;;22.60;;
55134;SDS011;41031;44.750;11.308;2023-02-15T08:49:18;39.97;;;22.20;;
55134;SDS011;41031;44.750;11.308;2023-02-15T08:51:48;43.37;;;23.17;;
55134;SDS011;41031;44.750;11.308;2023-02-15T08:54:17;40.77;;;22.13;;
55134;SDS011;41031;44.750;11.308;2023-02-15T08:56:46;43.83;;;23.10;;
55134;SDS011;41031;44.750;11.308;2023-02-15T08:59:17;41.80;;;24.47;;
55134;SDS011;41031;44.750;11.308;2023-02-15T09:01:47;41.40;;;23.23;;
55134;SDS011;41031;44.750;11.308;2023-02-15T09:04:16;46.57;;;22.83;;
55134;SDS011;41031;44.750;11.308;2023-02-15T09:06:44;44.57;;;23.97;;
55134;SDS011;41031;44.750;11.308;2023-02-15T09:09:14;41.40;;;23.73;;
55134;SDS011;41031;44.750;11.308;2023-02-15T09:11:43;41.33;;;23.03;;
55134;SDS011;41031;44.750;11.308;2023-02-15T09:14:13;42.80;;;23.07;;
55134;SDS011;41031;44.750;11.308;2023-02-15T09:16:42;49.47;;;23.57;;
55134;SDS011;41031;44.750;11.308;2023-02-15T09:19:12;40.30;;;22.13;;
55134;SDS011;41031;44.750;11.308;2023-02-15T09:21:39;36.70;;;21.20;;
55134;SDS011;41031;44.750;11.308;2023-02-15T09:24:08;39.57;;;22.40;;
55134;SDS011;41031;44.750;11.308;2023-02-15T09:26:38;49.37;;;24.07;;
55134;SDS011;41031;44.750;11.308;2023-02-15T09:29:08;41.83;;;23.87;;
55134;SDS011;41031;44.750;11.308;2023-02-15T09:31:40;43.03;;;23.50;;
55134;SDS011;41031;44.750;11.308;2023-02-15T09:34:14;44.97;;;23.63;;
55134;SDS011;41031;44.750;11.308;2023-02-15T09:36:43;46.93;;;23.77;;
55134;SDS011;41031;44.750;11.308;2023-02-15T09:39:15;51.97;;;27.63;;
55134;SDS011;41031;44.750;11.308;2023-02-15T10:50:57;73.70;;;40.67;;
55134;SDS011;41031;44.750;11.308;2023-02-15T10:56:18;66.33;;;37.40;;
55134;SDS011;41031;44.750;11.308;2023-02-15T11:07:31;65.17;;;39.00;;
55134;SDS011;41031;44.750;11.308;2023-02-15T11:11:22;68.03;;;39.67;;
55134;SDS011;41031;44.750;11.308;2023-02-15T11:13:54;67.13;;;38.83;;
55134;SDS011;41031;44.750;11.308;2023-02-15T11:16:33;67.80;;;41.00;;
55134;SDS011;41031;44.750;11.308;2023-02-15T11:19:06;69.77;;;39.07;;
55134;SDS011;41031;44.750;11.308;2023-02-15T11:21:43;73.20;;;39.47;;
55134;SDS011;41031;44.750;11.308;2023-02-15T11:24:17;69.13;;;40.60;;
55134;SDS011;41031;44.750;11.308;2023-02-15T11:27:05;65.37;;;39.50;;
55134;SDS011;41031;44.750;11.308;2023-02-15T11:29:40;76.07;;;40.80;;
55134;SDS011;41031;44.750;11.308;2023-02-15T11:32:25;66.33;;;40.37;;
55134;SDS011;41031;44.750;11.308;2023-02-15T11:35:05;61.03;;;39.97;;
55134;SDS011;41031;44.750;11.308;2023-02-15T11:43:13;69.10;;;39.20;;
55134;SDS011;41031;44.750;11.308;2023-02-15T11:45:45;66.83;;;39.97;;
55134;SDS011;41031;44.750;11.308;2023-02-15T11:48:13;67.97;;;40.20;;
55134;SDS011;41031;44.750;11.308;2023-02-15T11:50:41;70.93;;;39.73;;
55134;SDS011;41031;44.750;11.308;2023-02-15T11:53:13;65.50;;;39.53;;
55134;SDS011;41031;44.750;11.308;2023-02-15T11:55:43;62.70;;;37.37;;
55134;SDS011;41031;44.750;11.308;2023-02-15T11:58:16;63.90;;;38.00;;
55134;SDS011;41031;44.750;11.308;2023-02-15T12:00:49;68.57;;;39.93;;
55134;SDS011;41031;44.750;11.308;2023-02-15T12:03:22;70.70;;;40.80;;
55134;SDS011;41031;44.750;11.308;2023-02-15T12:05:56;66.57;;;38.63;;
55134;SDS011;41031;44.750;11.308;2023-02-15T12:08:31;62.03;;;38.00;;
55134;SDS011;41031;44.750;11.308;2023-02-15T12:11:07;67.87;;;39.43;;
55134;SDS011;41031;44.750;11.308;2023-02-15T12:13:57;73.90;;;39.60;;
55134;SDS011;41031;44.750;11.308;2023-02-15T12:16:29;64.23;;;38.60;;
55134;SDS011;41031;44.750;11.308;2023-02-15T12:19:09;60.70;;;36.57;;
55134;SDS011;41031;44.750;11.308;2023-02-15T12:22:01;61.70;;;36.43;;
55134;SDS011;41031;44.750;11.308;2023-02-15T12:24:34;59.33;;;36.13;;
55134;SDS011;41031;44.750;11.308;2023-02-15T12:32:24;62.27;;;36.27;;
55134;SDS011;41031;44.750;11.308;2023-02-15T12:35:00;60.43;;;35.97;;
55134;SDS011;41031;44.750;11.308;2023-02-15T12:37:34;60.80;;;36.07;;
55134;SDS011;41031;44.750;11.308;2023-02-15T12:40:17;58.90;;;34.73;;
55134;SDS011;41031;44.750;11.308;2023-02-15T12:42:47;53.57;;;32.53;;
55134;SDS011;41031;44.750;11.308;2023-02-15T12:50:48;56.73;;;35.10;;
55134;SDS011;41031;44.750;11.308;2023-02-15T12:53:34;56.50;;;34.63;;
55134;SDS011;41031;44.750;11.308;2023-02-15T12:56:06;41.77;;;26.93;;
55134;SDS011;41031;44.750;11.308;2023-02-15T12:58:36;51.70;;;29.87;;
55134;SDS011;41031;44.750;11.308;2023-02-15T13:04:12;51.00;;;30.77;;
55134;SDS011;41031;44.750;11.308;2023-02-15T13:06:47;50.53;;;31.10;;
55134;SDS011;41031;44.750;11.308;2023-02-15T13:09:20;52.17;;;31.43;;
55134;SDS011;41031;44.750;11.308;2023-02-15T13:11:50;48.43;;;30.30;;
55134;SDS011;41031;44.750;11.308;2023-02-15T13:17:00;46.13;;;28.40;;
55134;SDS011;41031;44.750;11.308;2023-02-15T13:19:31;43.93;;;28.70;;
55134;SDS011;41031;44.750;11.308;2023-02-15T13:22:06;46.33;;;29.33;;
55134;SDS011;41031;44.750;11.308;2023-02-15T13:24:39;46.97;;;29.83;;
55134;SDS011;41031;44.750;11.308;2023-02-15T13:27:17;52.73;;;30.03;;
55134;SDS011;41031;44.750;11.308;2023-02-15T13:29:48;45.47;;;28.90;;
55134;SDS011;41031;44.750;11.308;2023-02-15T13:32:37;50.07;;;29.67;;
55134;SDS011;41031;44.750;11.308;2023-02-15T13:35:13;46.27;;;28.27;;
55134;SDS011;41031;44.750;11.308;2023-02-15T13:37:50;51.77;;;30.20;;
55134;SDS011;41031;44.750;11.308;2023-02-15T13:40:22;49.90;;;30.83;;
55134;SDS011;41031;44.750;11.308;2023-02-15T13:43:00;44.33;;;29.13;;
55134;SDS011;41031;44.750;11.308;2023-02-15T14:02:08;51.67;;;29.13;;
55134;SDS011;41031;44.750;11.308;2023-02-15T14:04:50;56.83;;;30.50;;
55134;SDS011;41031;44.750;11.308;2023-02-15T14:07:30;47.47;;;30.77;;
55134;SDS011;41031;44.750;11.308;2023-02-15T14:13:10;48.50;;;28.97;;
55134;SDS011;41031;44.750;11.308;2023-02-15T14:16:13;51.70;;;28.83;;
55134;SDS011;41031;44.750;11.308;2023-02-15T14:27:19;50.07;;;29.83;;
55134;SDS011;41031;44.750;11.308;2023-02-15T14:29:57;51.87;;;28.47;;
55134;SDS011;41031;44.750;11.308;2023-02-15T14:35:37;57.13;;;28.77;;
55134;SDS011;41031;44.750;11.308;2023-02-15T14:46:24;47.37;;;28.67;;
55134;SDS011;41031;44.750;11.308;2023-02-15T14:49:05;46.57;;;28.33;;
55134;SDS011;41031;44.750;11.308;2023-02-15T15:00:36;50.33;;;28.67;;
55134;SDS011;41031;44.750;11.308;2023-02-15T15:12:50;51.40;;;29.87;;
55134;SDS011;41031;44.750;11.308;2023-02-15T15:17:58;52.17;;;29.87;;
55134;SDS011;41031;44.750;11.308;2023-02-15T15:28:52;49.57;;;30.97;;
55134;SDS011;41031;44.750;11.308;2023-02-15T15:31:18;51.17;;;31.60;;
55134;SDS011;41031;44.750;11.308;2023-02-15T15:50:45;52.30;;;30.23;;
55134;SDS011;41031;44.750;11.308;2023-02-15T15:53:22;50.20;;;29.50;;
55134;SDS011;41031;44.750;11.308;2023-02-15T15:55:52;51.47;;;30.30;;
55134;SDS011;41031;44.750;11.308;2023-02-15T15:58:26;50.73;;;29.40;;
55134;SDS011;41031;44.750;11.308;2023-02-15T16:00:59;49.93;;;29.40;;
55134;SDS011;41031;44.750;11.308;2023-02-15T16:03:34;54.67;;;29.13;;
55134;SDS011;41031;44.750;11.308;2023-02-15T16:06:01;51.80;;;30.33;;
55134;SDS011;41031;44.750;11.308;2023-02-15T16:08:30;63.43;;;31.37;;
55134;SDS011;41031;44.750;11.308;2023-02-15T16:10:59;53.97;;;30.63;;
55134;SDS011;41031;44.750;11.308;2023-02-15T16:13:33;51.93;;;28.50;;
55134;SDS011;41031;44.750;11.308;2023-02-15T16:16:00;53.87;;;30.07;;
55134;SDS011;41031;44.750;11.308;2023-02-15T16:18:28;58.77;;;31.17;;
55134;SDS011;41031;44.750;11.308;2023-02-15T16:20:59;62.30;;;32.07;;
55134;SDS011;41031;44.750;11.308;2023-02-15T16:28:49;52.47;;;31.03;;
55134;SDS011;41031;44.750;11.308;2023-02-15T16:31:18;61.50;;;31.40;;
55134;SDS011;41031;44.750;11.308;2023-02-15T16:33:46;57.33;;;32.57;;
55134;SDS011;41031;44.750;11.308;2023-02-15T16:36:23;57.93;;;31.70;;
55134;SDS011;41031;44.750;11.308;2023-02-15T16:43:50;56.47;;;30.80;;
55134;SDS011;41031;44.750;11.308;2023-02-15T16:46:41;53.33;;;31.57;;
55134;SDS011;41031;44.750;11.308;2023-02-15T16:49:22;57.83;;;31.53;;
55134;SDS011;41031;44.750;11.308;2023-02-15T16:54:24;61.70;;;31.47;;
55134;SDS011;41031;44.750;11.308;2023-02-15T16:56:52;64.20;;;33.30;;
55134;SDS011;41031;44.750;11.308;2023-02-15T16:59:41;56.43;;;32.93;;
55134;SDS011;41031;44.750;11.308;2023-02-15T17:02:15;60.47;;;34.27;;
55134;SDS011;41031;44.750;11.308;2023-02-15T17:07:41;66.10;;;35.27;;
55134;SDS011;41031;44.750;11.308;2023-02-15T17:10:36;74.27;;;35.43;;
55134;SDS011;41031;44.750;11.308;2023-02-15T17:13:05;60.27;;;34.33;;
55134;SDS011;41031;44.750;11.308;2023-02-15T17:15:38;61.10;;;34.87;;
55134;SDS011;41031;44.750;11.308;2023-02-15T17:18:12;65.70;;;33.97;;
55134;SDS011;41031;44.750;11.308;2023-02-15T17:20:44;58.17;;;35.20;;
55134;SDS011;41031;44.750;11.308;2023-02-15T17:25:59;67.60;;;36.30;;
55134;SDS011;41031;44.750;11.308;2023-02-15T17:28:36;63.53;;;35.37;;
55134;SDS011;41031;44.750;11.308;2023-02-15T17:31:06;66.67;;;34.30;;
55134;SDS011;41031;44.750;11.308;2023-02-15T17:33:37;64.20;;;36.33;;
55134;SDS011;41031;44.750;11.308;2023-02-15T17:38:40;65.73;;;35.37;;
55134;SDS011;41031;44.750;11.308;2023-02-15T17:41:27;60.87;;;34.73;;
55134;SDS011;41031;44.750;11.308;2023-02-15T17:43:56;70.40;;;37.87;;
55134;SDS011;41031;44.750;11.308;2023-02-15T17:46:23;71.37;;;36.87;;
55134;SDS011;41031;44.750;11.308;2023-02-15T17:48:52;66.80;;;36.77;;
55134;SDS011;41031;44.750;11.308;2023-02-15T17:51:21;64.57;;;34.83;;
55134;SDS011;41031;44.750;11.308;2023-02-15T17:53:49;74.27;;;37.50;;
55134;SDS011;41031;44.750;11.308;2023-02-15T17:56:35;62.37;;;35.33;;
55134;SDS011;41031;44.750;11.308;2023-02-15T17:59:03;62.27;;;34.67;;
55134;SDS011;41031;44.750;11.308;2023-02-15T18:01:36;71.97;;;36.40;;
55134;SDS011;41031;44.750;11.308;2023-02-15T18:04:34;47.83;;;28.83;;
55134;SDS011;41031;44.750;11.308;2023-02-15T18:07:21;59.70;;;33.37;;
55134;SDS011;41031;44.750;11.308;2023-02-15T18:10:16;78.20;;;38.80;;
55134;SDS011;41031;44.750;11.308;2023-02-15T18:13:03;66.33;;;37.17;;
55134;SDS011;41031;44.750;11.308;2023-02-15T18:15:30;68.47;;;38.00;;
55134;SDS011;41031;44.750;11.308;2023-02-15T18:17:57;73.27;;;39.13;;
55134;SDS011;41031;44.750;11.308;2023-02-15T18:20:25;64.93;;;37.27;;
55134;SDS011;41031;44.750;11.308;2023-02-15T18:22:56;75.00;;;38.43;;
55134;SDS011;41031;44.750;11.308;2023-02-15T18:25:24;65.80;;;34.23;;
55134;SDS011;41031;44.750;11.308;2023-02-15T18:27:51;57.40;;;34.67;;
55134;SDS011;41031;44.750;11.308;2023-02-15T18:30:21;63.87;;;37.43;;
55134;SDS011;41031;44.750;11.308;2023-02-15T18:32:51;60.43;;;35.97;;
55134;SDS011;41031;44.750;11.308;2023-02-15T18:35:22;67.23;;;35.80;;
55134;SDS011;41031;44.750;11.308;2023-02-15T18:37:51;69.97;;;37.47;;
55134;SDS011;41031;44.750;11.308;2023-02-15T18:40:20;63.37;;;37.13;;
55134;SDS011;41031;44.750;11.308;2023-02-15T18:42:50;61.80;;;38.53;;